createdAt,value
2023-01-06T00:20:22.671Z,4.43
2023-01-06T00:40:49.279Z,6.63
2023-01-06T01:15:44.774Z,6.63
2023-01-06T01:41:43.497Z,4.93
2023-01-06T02:17:14.785Z,7.57
2023-01-06T02:57:23.799Z,3.30
2023-01-06T03:27:59.889Z,4.80
2023-01-06T03:58:08.240Z,5.70
2023-01-06T04:18:50.916Z,6.70
2023-01-06T04:44:17.953Z,7.33
2023-01-06T05:09:29.483Z,5.97
2023-01-06T05:34:46.202Z,6.00
2023-01-06T06:10:09.549Z,5.50
2023-01-06T06:40:39.379Z,8.07
2023-01-06T07:01:05.519Z,7.47
2023-01-06T07:26:19.895Z,8.33
2023-01-06T07:51:32.100Z,7.97
2023-01-06T08:12:04.151Z,7.67
2023-01-06T08:32:10.499Z,7.90
2023-01-06T09:02:04.297Z,8.23
2023-01-06T09:17:47.651Z,7.50
2023-01-06T09:52:49.393Z,7.80
2023-01-06T10:18:23.201Z,7.90
2023-01-06T10:48:52.254Z,8.27
2023-01-06T11:13:56.660Z,11.47
2023-01-06T11:34:33.408Z,9.93
2023-01-06T12:10:12.040Z,9.93
2023-01-06T12:35:27.653Z,10.20
2023-01-06T12:55:50.981Z,9.63
2023-01-06T13:41:01.568Z,11.70
2023-01-06T14:21:50.317Z,11.87
2023-01-06T15:02:03.057Z,13.37
2023-01-06T15:27:53.417Z,24.53
2023-01-06T15:57:53.301Z,20.20
2023-01-06T16:23:41.473Z,16.43
2023-01-06T17:09:19.786Z,28.83
2023-01-06T17:29:23.836Z,27.73
2023-01-06T17:59:58.681Z,35.97
2023-01-06T18:20:26.061Z,33.73
2023-01-06T18:45:28.873Z,34.50
2023-01-06T19:10:52.930Z,35.77
2023-01-06T19:41:28.632Z,32.87
2023-01-06T20:21:58.464Z,32.70
2023-01-06T20:52:23.240Z,31.10
2023-01-06T21:17:12.693Z,32.37
2023-01-06T21:37:48.810Z,34.13
2023-01-06T23:24:26.401Z,39.63
2023-01-06T23:49:56.628Z,36.47
